sensor_id;sensor_type;location;lat;lon;timestamp;P1;durP1;ratioP1;P2;durP2;ratioP2
18217;SDS011;9234;49.344;11.120;2023-11-19T00:00:26;2.70;;;2.03;;
18217;SDS011;9234;49.344;11.120;2023-11-19T00:02:54;2.13;;;1.77;;
18217;SDS011;9234;49.344;11.120;2023-11-19T00:05:22;2.37;;;2.17;;
18217;SDS011;9234;49.344;11.120;2023-11-19T00:07:52;2.93;;;2.63;;
18217;SDS011;9234;49.344;11.120;2023-11-19T00:10:21;3.37;;;2.60;;
18217;SDS011;9234;49.344;11.120;2023-11-19T00:12:49;3.37;;;2.80;;
18217;SDS011;9234;49.344;11.120;2023-11-19T00:15:21;2.33;;;2.10;;
18217;SDS011;9234;49.344;11.120;2023-11-19T00:17:50;3.47;;;2.73;;
18217;SDS011;9234;49.344;11.120;2023-11-19T00:20:19;3.77;;;2.33;;
18217;SDS011;9234;49.344;11.120;2023-11-19T00:22:49;4.30;;;2.40;;
18217;SDS011;9234;49.344;11.120;2023-11-19T00:25:20;3.63;;;3.00;;
18217;SDS011;9234;49.344;11.120;2023-11-19T00:27:49;2.10;;;1.90;;
18217;SDS011;9234;49.344;11.120;2023-11-19T00:30:22;4.00;;;2.38;;
18217;SDS011;9234;49.344;11.120;2023-11-19T00:32:52;3.15;;;2.55;;
18217;SDS011;9234;49.344;11.120;2023-11-19T00:35:20;3.67;;;2.15;;
18217;SDS011;9234;49.344;11.120;2023-11-19T00:37:49;2.90;;;2.58;;
18217;SDS011;9234;49.344;11.120;2023-11-19T00:40:17;2.97;;;2.50;;
18217;SDS011;9234;49.344;11.120;2023-11-19T00:42:49;4.70;;;2.60;;
18217;SDS011;9234;49.344;11.120;2023-11-19T00:45:17;3.70;;;2.57;;
18217;SDS011;9234;49.344;11.120;2023-11-19T00:47:46;3.10;;;2.25;;
18217;SDS011;9234;49.344;11.120;2023-11-19T00:50:14;2.80;;;2.55;;
18217;SDS011;9234;49.344;11.120;2023-11-19T00:52:43;2.50;;;2.22;;
18217;SDS011;9234;49.344;11.120;2023-11-19T00:55:12;3.77;;;3.07;;
18217;SDS011;9234;49.344;11.120;2023-11-19T00:57:41;3.73;;;3.00;;
18217;SDS011;9234;49.344;11.120;2023-11-19T01:00:10;4.37;;;3.73;;
18217;SDS011;9234;49.344;11.120;2023-11-19T01:02:46;3.17;;;2.87;;
18217;SDS011;9234;49.344;11.120;2023-11-19T01:05:18;4.77;;;3.07;;
18217;SDS011;9234;49.344;11.120;2023-11-19T01:07:48;3.27;;;2.97;;
18217;SDS011;9234;49.344;11.120;2023-11-19T01:10:18;3.40;;;3.10;;
18217;SDS011;9234;49.344;11.120;2023-11-19T01:12:48;3.07;;;2.63;;
18217;SDS011;9234;49.344;11.120;2023-11-19T01:15:17;3.17;;;2.60;;
18217;SDS011;9234;49.344;11.120;2023-11-19T01:17:46;2.95;;;2.55;;
18217;SDS011;9234;49.344;11.120;2023-11-19T01:20:18;2.42;;;2.22;;
18217;SDS011;9234;49.344;11.120;2023-11-19T01:22:48;2.35;;;2.15;;
18217;SDS011;9234;49.344;11.120;2023-11-19T01:25:16;2.60;;;2.38;;
18217;SDS011;9234;49.344;11.120;2023-11-19T01:27:45;3.37;;;2.73;;
18217;SDS011;9234;49.344;11.120;2023-11-19T01:30:15;2.90;;;2.53;;
18217;SDS011;9234;49.344;11.120;2023-11-19T01:32:43;3.03;;;2.73;;
18217;SDS011;9234;49.344;11.120;2023-11-19T01:35:12;3.43;;;2.93;;
18217;SDS011;9234;49.344;11.120;2023-11-19T01:37:40;3.85;;;3.13;;
18217;SDS011;9234;49.344;11.120;2023-11-19T01:40:09;3.20;;;2.90;;
18217;SDS011;9234;49.344;11.120;2023-11-19T01:42:39;3.17;;;2.88;;
18217;SDS011;9234;49.344;11.120;2023-11-19T01:45:08;3.87;;;3.47;;
18217;SDS011;9234;49.344;11.120;2023-11-19T01:47:44;5.03;;;3.30;;
18217;SDS011;9234;49.344;11.120;2023-11-19T01:50:12;3.43;;;2.93;;
18217;SDS011;9234;49.344;11.120;2023-11-19T01:52:41;3.90;;;3.10;;
18217;SDS011;9234;49.344;11.120;2023-11-19T01:55:12;3.37;;;2.80;;
18217;SDS011;9234;49.344;11.120;2023-11-19T01:57:41;3.07;;;2.77;;
18217;SDS011;9234;49.344;11.120;2023-11-19T02:00:10;2.87;;;2.57;;
18217;SDS011;9234;49.344;11.120;2023-11-19T02:02:42;3.37;;;2.50;;
18217;SDS011;9234;49.344;11.120;2023-11-19T02:05:13;3.35;;;2.70;;
18217;SDS011;9234;49.344;11.120;2023-11-19T02:07:42;3.90;;;3.13;;
18217;SDS011;9234;49.344;11.120;2023-11-19T02:10:12;3.45;;;2.85;;
18217;SDS011;9234;49.344;11.120;2023-11-19T02:12:43;3.22;;;2.45;;
18217;SDS011;9234;49.344;11.120;2023-11-19T02:15:12;3.42;;;3.13;;
18217;SDS011;9234;49.344;11.120;2023-11-19T02:17:40;2.65;;;2.40;;
18217;SDS011;9234;49.344;11.120;2023-11-19T02:20:11;3.27;;;2.80;;
18217;SDS011;9234;49.344;11.120;2023-11-19T02:22:41;3.67;;;2.53;;
18217;SDS011;9234;49.344;11.120;2023-11-19T02:25:12;3.97;;;2.93;;
18217;SDS011;9234;49.344;11.120;2023-11-19T02:27:51;2.85;;;2.40;;
18217;SDS011;9234;49.344;11.120;2023-11-19T02:30:23;4.53;;;2.60;;
18217;SDS011;9234;49.344;11.120;2023-11-19T02:32:53;3.28;;;2.95;;
18217;SDS011;9234;49.344;11.120;2023-11-19T02:35:23;2.95;;;2.65;;
18217;SDS011;9234;49.344;11.120;2023-11-19T02:37:52;2.60;;;2.40;;
18217;SDS011;9234;49.344;11.120;2023-11-19T02:40:21;3.22;;;2.83;;
18217;SDS011;9234;49.344;11.120;2023-11-19T02:42:52;3.07;;;2.77;;
18217;SDS011;9234;49.344;11.120;2023-11-19T02:45:22;3.63;;;2.80;;
18217;SDS011;9234;49.344;11.120;2023-11-19T02:47:51;2.83;;;2.40;;
18217;SDS011;9234;49.344;11.120;2023-11-19T02:50:21;4.07;;;2.70;;
18217;SDS011;9234;49.344;11.120;2023-11-19T02:52:53;3.63;;;3.03;;
18217;SDS011;9234;49.344;11.120;2023-11-19T02:55:23;3.20;;;2.90;;
18217;SDS011;9234;49.344;11.120;2023-11-19T02:57:56;3.87;;;3.23;;
18217;SDS011;9234;49.344;11.120;2023-11-19T03:00:26;4.10;;;3.70;;
18217;SDS011;9234;49.344;11.120;2023-11-19T03:03:00;3.57;;;3.27;;
18217;SDS011;9234;49.344;11.120;2023-11-19T03:05:44;3.77;;;3.17;;
18217;SDS011;9234;49.344;11.120;2023-11-19T03:08:13;3.90;;;3.30;;
18217;SDS011;9234;49.344;11.120;2023-11-19T03:10:45;4.13;;;3.20;;
18217;SDS011;9234;49.344;11.120;2023-11-19T03:13:15;3.17;;;2.87;;
18217;SDS011;9234;49.344;11.120;2023-11-19T03:15:43;3.07;;;2.70;;
18217;SDS011;9234;49.344;11.120;2023-11-19T03:18:12;4.43;;;3.17;;
18217;SDS011;9234;49.344;11.120;2023-11-19T03:20:41;4.25;;;3.40;;
18217;SDS011;9234;49.344;11.120;2023-11-19T03:23:09;3.93;;;3.20;;
18217;SDS011;9234;49.344;11.120;2023-11-19T03:25:37;4.53;;;2.92;;
18217;SDS011;9234;49.344;11.120;2023-11-19T03:28:05;4.20;;;3.42;;
18217;SDS011;9234;49.344;11.120;2023-11-19T03:30:35;6.60;;;3.13;;
18217;SDS011;9234;49.344;11.120;2023-11-19T03:33:03;3.83;;;3.33;;
18217;SDS011;9234;49.344;11.120;2023-11-19T03:35:33;3.80;;;3.00;;
18217;SDS011;9234;49.344;11.120;2023-11-19T03:38:02;2.88;;;2.53;;
18217;SDS011;9234;49.344;11.120;2023-11-19T03:40:30;5.25;;;2.97;;
18217;SDS011;9234;49.344;11.120;2023-11-19T03:42:58;3.35;;;3.05;;
18217;SDS011;9234;49.344;11.120;2023-11-19T03:45:27;3.65;;;2.97;;
18217;SDS011;9234;49.344;11.120;2023-11-19T03:47:57;4.25;;;3.55;;
18217;SDS011;9234;49.344;11.120;2023-11-19T03:50:25;5.15;;;4.40;;
18217;SDS011;9234;49.344;11.120;2023-11-19T03:52:53;6.07;;;4.63;;
18217;SDS011;9234;49.344;11.120;2023-11-19T03:55:21;5.35;;;3.60;;
18217;SDS011;9234;49.344;11.120;2023-11-19T03:57:50;4.35;;;3.53;;
18217;SDS011;9234;49.344;11.120;2023-11-19T04:00:18;5.22;;;3.90;;
18217;SDS011;9234;49.344;11.120;2023-11-19T04:02:47;4.15;;;3.40;;
18217;SDS011;9234;49.344;11.120;2023-11-19T04:05:18;4.20;;;3.80;;
18217;SDS011;9234;49.344;11.120;2023-11-19T04:07:46;6.13;;;4.32;;
18217;SDS011;9234;49.344;11.120;2023-11-19T04:10:14;5.20;;;4.15;;
18217;SDS011;9234;49.344;11.120;2023-11-19T04:12:45;4.60;;;4.20;;
18217;SDS011;9234;49.344;11.120;2023-11-19T04:15:13;4.95;;;3.92;;
18217;SDS011;9234;49.344;11.120;2023-11-19T04:17:43;4.85;;;4.45;;
18217;SDS011;9234;49.344;11.120;2023-11-19T04:20:11;4.93;;;4.25;;
18217;SDS011;9234;49.344;11.120;2023-11-19T04:22:42;4.82;;;4.32;;
18217;SDS011;9234;49.344;11.120;2023-11-19T04:25:11;6.20;;;5.57;;
18217;SDS011;9234;49.344;11.120;2023-11-19T04:27:41;6.00;;;5.43;;
18217;SDS011;9234;49.344;11.120;2023-11-19T04:30:10;5.13;;;4.63;;
18217;SDS011;9234;49.344;11.120;2023-11-19T04:32:40;6.70;;;5.05;;
18217;SDS011;9234;49.344;11.120;2023-11-19T04:35:08;5.82;;;5.22;;
18217;SDS011;9234;49.344;11.120;2023-11-19T04:37:37;5.80;;;5.20;;
18217;SDS011;9234;49.344;11.120;2023-11-19T04:40:07;6.20;;;5.40;;
18217;SDS011;9234;49.344;11.120;2023-11-19T04:42:36;6.00;;;5.37;;
18217;SDS011;9234;49.344;11.120;2023-11-19T04:45:07;5.30;;;4.80;;
18217;SDS011;9234;49.344;11.120;2023-11-19T04:47:36;6.50;;;5.78;;
18217;SDS011;9234;49.344;11.120;2023-11-19T04:50:05;6.30;;;4.95;;
18217;SDS011;9234;49.344;11.120;2023-11-19T04:52:37;6.45;;;5.85;;
18217;SDS011;9234;49.344;11.120;2023-11-19T04:55:10;5.78;;;5.20;;
18217;SDS011;9234;49.344;11.120;2023-11-19T04:57:41;5.80;;;5.22;;
18217;SDS011;9234;49.344;11.120;2023-11-19T05:00:09;7.20;;;5.70;;
18217;SDS011;9234;49.344;11.120;2023-11-19T05:02:43;6.22;;;5.63;;
18217;SDS011;9234;49.344;11.120;2023-11-19T05:05:12;6.53;;;5.38;;
18217;SDS011;9234;49.344;11.120;2023-11-19T05:07:40;6.43;;;5.75;;
18217;SDS011;9234;49.344;11.120;2023-11-19T05:10:10;5.38;;;4.78;;
18217;SDS011;9234;49.344;11.120;2023-11-19T05:12:38;6.72;;;6.05;;
18217;SDS011;9234;49.344;11.120;2023-11-19T05:15:08;6.28;;;4.82;;
18217;SDS011;9234;49.344;11.120;2023-11-19T05:17:38;6.07;;;5.47;;
18217;SDS011;9234;49.344;11.120;2023-11-19T05:20:06;6.13;;;5.53;;
18217;SDS011;9234;49.344;11.120;2023-11-19T05:22:39;5.55;;;5.03;;
18217;SDS011;9234;49.344;11.120;2023-11-19T05:25:10;5.57;;;5.03;;
18217;SDS011;9234;49.344;11.120;2023-11-19T05:27:38;6.15;;;5.55;;
18217;SDS011;9234;49.344;11.120;2023-11-19T05:30:07;6.28;;;5.25;;
18217;SDS011;9234;49.344;11.120;2023-11-19T05:32:37;6.25;;;5.18;;
18217;SDS011;9234;49.344;11.120;2023-11-19T05:35:06;5.97;;;5.25;;
18217;SDS011;9234;49.344;11.120;2023-11-19T05:37:36;6.53;;;5.35;;
18217;SDS011;9234;49.344;11.120;2023-11-19T05:40:05;5.63;;;4.85;;
18217;SDS011;9234;49.344;11.120;2023-11-19T05:42:43;6.63;;;4.95;;
18217;SDS011;9234;49.344;11.120;2023-11-19T05:45:11;5.97;;;4.70;;
18217;SDS011;9234;49.344;11.120;2023-11-19T05:47:40;6.97;;;4.85;;
18217;SDS011;9234;49.344;11.120;2023-11-19T05:50:10;6.68;;;4.63;;
18217;SDS011;9234;49.344;11.120;2023-11-19T05:52:38;6.22;;;4.80;;
18217;SDS011;9234;49.344;11.120;2023-11-19T05:55:07;5.50;;;4.93;;
18217;SDS011;9234;49.344;11.120;2023-11-19T05:57:37;5.40;;;4.35;;
18217;SDS011;9234;49.344;11.120;2023-11-19T06:00:10;5.13;;;4.63;;
18217;SDS011;9234;49.344;11.120;2023-11-19T06:02:41;5.20;;;4.70;;
18217;SDS011;9234;49.344;11.120;2023-11-19T06:05:10;5.72;;;4.65;;
18217;SDS011;9234;49.344;11.120;2023-11-19T06:07:38;5.07;;;3.90;;
18217;SDS011;9234;49.344;11.120;2023-11-19T06:10:08;5.05;;;4.07;;
18217;SDS011;9234;49.344;11.120;2023-11-19T06:12:37;4.60;;;4.10;;
18217;SDS011;9234;49.344;11.120;2023-11-19T06:15:08;5.35;;;4.32;;
18217;SDS011;9234;49.344;11.120;2023-11-19T06:17:38;5.75;;;4.63;;
18217;SDS011;9234;49.344;11.120;2023-11-19T06:20:07;5.90;;;3.97;;
18217;SDS011;9234;49.344;11.120;2023-11-19T06:22:38;4.65;;;4.13;;
18217;SDS011;9234;49.344;11.120;2023-11-19T06:25:06;4.30;;;3.72;;
18217;SDS011;9234;49.344;11.120;2023-11-19T06:27:36;4.50;;;4.10;;
18217;SDS011;9234;49.344;11.120;2023-11-19T06:30:07;4.15;;;3.42;;
18217;SDS011;9234;49.344;11.120;2023-11-19T06:32:40;4.40;;;4.00;;
18217;SDS011;9234;49.344;11.120;2023-11-19T06:35:08;5.78;;;3.83;;
18217;SDS011;9234;49.344;11.120;2023-11-19T06:37:38;5.57;;;3.97;;
18217;SDS011;9234;49.344;11.120;2023-11-19T06:40:07;3.63;;;3.08;;
18217;SDS011;9234;49.344;11.120;2023-11-19T06:42:36;3.85;;;3.22;;
18217;SDS011;9234;49.344;11.120;2023-11-19T06:45:05;5.72;;;3.95;;
18217;SDS011;9234;49.344;11.120;2023-11-19T06:47:36;3.63;;;3.33;;
18217;SDS011;9234;49.344;11.120;2023-11-19T06:50:04;4.72;;;3.40;;
18217;SDS011;9234;49.344;11.120;2023-11-19T06:52:35;4.30;;;3.17;;
18217;SDS011;9234;49.344;11.120;2023-11-19T06:55:04;3.35;;;2.88;;
18217;SDS011;9234;49.344;11.120;2023-11-19T06:57:35;4.00;;;3.20;;
18217;SDS011;9234;49.344;11.120;2023-11-19T07:00:03;3.65;;;2.65;;
18217;SDS011;9234;49.344;11.120;2023-11-19T07:02:35;3.25;;;2.95;;
18217;SDS011;9234;49.344;11.120;2023-11-19T07:05:04;4.97;;;3.72;;
18217;SDS011;9234;49.344;11.120;2023-11-19T07:07:34;5.03;;;4.28;;
18217;SDS011;9234;49.344;11.120;2023-11-19T07:10:03;4.22;;;3.83;;
18217;SDS011;9234;49.344;11.120;2023-11-19T07:12:35;3.53;;;3.22;;
18217;SDS011;9234;49.344;11.120;2023-11-19T07:15:04;4.22;;;3.83;;
18217;SDS011;9234;49.344;11.120;2023-11-19T07:17:35;3.75;;;3.30;;
18217;SDS011;9234;49.344;11.120;2023-11-19T07:20:04;3.45;;;3.15;;
18217;SDS011;9234;49.344;11.120;2023-11-19T07:22:34;3.10;;;2.80;;
18217;SDS011;9234;49.344;11.120;2023-11-19T07:25:05;2.90;;;2.10;;
18217;SDS011;9234;49.344;11.120;2023-11-19T07:27:34;2.35;;;1.90;;
18217;SDS011;9234;49.344;11.120;2023-11-19T07:30:04;1.65;;;1.55;;
18217;SDS011;9234;49.344;11.120;2023-11-19T07:32:35;1.77;;;1.23;;
18217;SDS011;9234;49.344;11.120;2023-11-19T07:35:06;2.05;;;0.93;;
18217;SDS011;9234;49.344;11.120;2023-11-19T07:37:35;1.80;;;0.80;;
18217;SDS011;9234;49.344;11.120;2023-11-19T07:40:04;1.77;;;0.60;;
18217;SDS011;9234;49.344;11.120;2023-11-19T07:42:33;2.15;;;0.90;;
18217;SDS011;9234;49.344;11.120;2023-11-19T07:45:04;1.00;;;0.70;;
18217;SDS011;9234;49.344;11.120;2023-11-19T07:47:33;1.63;;;1.00;;
18217;SDS011;9234;49.344;11.120;2023-11-19T07:50:05;1.42;;;1.05;;
18217;SDS011;9234;49.344;11.120;2023-11-19T07:52:34;1.10;;;0.70;;
18217;SDS011;9234;49.344;11.120;2023-11-19T07:55:04;0.88;;;0.82;;
18217;SDS011;9234;49.344;11.120;2023-11-19T07:57:33;2.80;;;2.30;;
18217;SDS011;9234;49.344;11.120;2023-11-19T08:00:02;7.13;;;4.55;;
18217;SDS011;9234;49.344;11.120;2023-11-19T08:02:39;1.42;;;1.15;;
18217;SDS011;9234;49.344;11.120;2023-11-19T08:05:08;1.63;;;0.68;;
18217;SDS011;9234;49.344;11.120;2023-11-19T08:07:36;0.80;;;0.77;;
18217;SDS011;9234;49.344;11.120;2023-11-19T08:10:05;8.60;;;5.75;;
18217;SDS011;9234;49.344;11.120;2023-11-19T08:12:36;2.40;;;1.70;;
18217;SDS011;9234;49.344;11.120;2023-11-19T08:15:04;2.88;;;1.88;;
18217;SDS011;9234;49.344;11.120;2023-11-19T08:17:33;4.30;;;2.78;;
18217;SDS011;9234;49.344;11.120;2023-11-19T08:20:04;4.93;;;4.10;;
18217;SDS011;9234;49.344;11.120;2023-11-19T08:22:36;2.33;;;1.63;;
18217;SDS011;9234;49.344;11.120;2023-11-19T08:25:05;4.85;;;2.30;;
18217;SDS011;9234;49.344;11.120;2023-11-19T08:27:34;1.95;;;1.70;;
18217;SDS011;9234;49.344;11.120;2023-11-19T08:30:05;2.92;;;2.45;;
18217;SDS011;9234;49.344;11.120;2023-11-19T08:32:34;0.95;;;0.85;;
18217;SDS011;9234;49.344;11.120;2023-11-19T08:35:06;2.33;;;0.90;;
18217;SDS011;9234;49.344;11.120;2023-11-19T08:37:35;0.85;;;0.60;;
18217;SDS011;9234;49.344;11.120;2023-11-19T08:40:04;2.60;;;1.15;;
18217;SDS011;9234;49.344;11.120;2023-11-19T08:42:34;1.42;;;0.70;;
18217;SDS011;9234;49.344;11.120;2023-11-19T08:45:03;1.00;;;0.90;;
18217;SDS011;9234;49.344;11.120;2023-11-19T08:47:32;1.92;;;0.80;;
18217;SDS011;9234;49.344;11.120;2023-11-19T08:50:01;2.95;;;0.82;;
18217;SDS011;9234;49.344;11.120;2023-11-19T08:52:31;1.30;;;1.20;;
18217;SDS011;9234;49.344;11.120;2023-11-19T08:55:01;1.35;;;1.10;;
18217;SDS011;9234;49.344;11.120;2023-11-19T08:57:31;0.70;;;0.50;;
18217;SDS011;9234;49.344;11.120;2023-11-19T09:00:00;2.20;;;1.90;;
18217;SDS011;9234;49.344;11.120;2023-11-19T09:02:29;2.67;;;1.33;;
18217;SDS011;9234;49.344;11.120;2023-11-19T09:04:58;0.40;;;0.40;;
18217;SDS011;9234;49.344;11.120;2023-11-19T09:07:27;0.63;;;0.63;;
18217;SDS011;9234;49.344;11.120;2023-11-19T09:09:56;4.68;;;1.00;;
18217;SDS011;9234;49.344;11.120;2023-11-19T09:12:25;1.30;;;0.90;;
18217;SDS011;9234;49.344;11.120;2023-11-19T09:14:53;2.10;;;0.77;;
18217;SDS011;9234;49.344;11.120;2023-11-19T09:17:21;1.20;;;0.70;;
18217;SDS011;9234;49.344;11.120;2023-11-19T09:19:50;2.42;;;1.60;;
18217;SDS011;9234;49.344;11.120;2023-11-19T09:22:18;1.40;;;1.30;;
18217;SDS011;9234;49.344;11.120;2023-11-19T09:24:46;1.35;;;0.88;;
18217;SDS011;9234;49.344;11.120;2023-11-19T09:27:16;6.45;;;5.90;;
18217;SDS011;9234;49.344;11.120;2023-11-19T09:29:44;1.45;;;1.08;;
18217;SDS011;9234;49.344;11.120;2023-11-19T09:32:15;3.17;;;2.58;;
18217;SDS011;9234;49.344;11.120;2023-11-19T09:34:43;8.60;;;6.65;;
18217;SDS011;9234;49.344;11.120;2023-11-19T09:37:14;2.35;;;0.90;;
18217;SDS011;9234;49.344;11.120;2023-11-19T09:39:45;3.13;;;2.08;;
18217;SDS011;9234;49.344;11.120;2023-11-19T09:42:13;0.73;;;0.50;;
18217;SDS011;9234;49.344;11.120;2023-11-19T09:44:44;1.27;;;0.80;;
18217;SDS011;9234;49.344;11.120;2023-11-19T09:47:15;2.55;;;0.80;;
18217;SDS011;9234;49.344;11.120;2023-11-19T09:49:46;1.27;;;0.45;;
18217;SDS011;9234;49.344;11.120;2023-11-19T09:52:17;1.10;;;0.60;;
18217;SDS011;9234;49.344;11.120;2023-11-19T09:54:45;1.95;;;1.75;;
18217;SDS011;9234;49.344;11.120;2023-11-19T09:57:15;0.98;;;0.32;;
18217;SDS011;9234;49.344;11.120;2023-11-19T09:59:45;2.88;;;0.90;;
18217;SDS011;9234;49.344;11.120;2023-11-19T10:02:14;5.68;;;4.85;;
18217;SDS011;9234;49.344;11.120;2023-11-19T10:04:44;2.72;;;1.10;;
18217;SDS011;9234;49.344;11.120;2023-11-19T10:07:15;4.40;;;2.40;;
18217;SDS011;9234;49.344;11.120;2023-11-19T10:09:44;19.20;;;14.63;;
18217;SDS011;9234;49.344;11.120;2023-11-19T10:12:15;1.73;;;1.10;;
18217;SDS011;9234;49.344;11.120;2023-11-19T10:14:43;3.53;;;0.63;;
18217;SDS011;9234;49.344;11.120;2023-11-19T10:17:13;1.52;;;1.20;;
18217;SDS011;9234;49.344;11.120;2023-11-19T10:19:42;1.15;;;1.00;;
18217;SDS011;9234;49.344;11.120;2023-11-19T10:22:10;2.42;;;1.02;;
18217;SDS011;9234;49.344;11.120;2023-11-19T10:24:41;3.90;;;0.90;;
18217;SDS011;9234;49.344;11.120;2023-11-19T10:27:16;1.33;;;0.50;;
18217;SDS011;9234;49.344;11.120;2023-11-19T10:29:44;3.30;;;1.58;;
18217;SDS011;9234;49.344;11.120;2023-11-19T10:32:14;3.92;;;0.60;;
18217;SDS011;9234;49.344;11.120;2023-11-19T10:34:52;3.17;;;0.80;;
18217;SDS011;9234;49.344;11.120;2023-11-19T10:37:32;6.22;;;3.80;;
18217;SDS011;9234;49.344;11.120;2023-11-19T10:40:05;2.63;;;1.10;;
18217;SDS011;9234;49.344;11.120;2023-11-19T10:42:38;2.92;;;0.93;;
18217;SDS011;9234;49.344;11.120;2023-11-19T10:45:12;4.10;;;3.40;;
18217;SDS011;9234;49.344;11.120;2023-11-19T10:47:51;1.23;;;0.82;;
18217;SDS011;9234;49.344;11.120;2023-11-19T10:50:20;1.05;;;0.70;;
18217;SDS011;9234;49.344;11.120;2023-11-19T10:52:50;3.33;;;1.67;;
18217;SDS011;9234;49.344;11.120;2023-11-19T10:55:27;6.13;;;3.78;;
18217;SDS011;9234;49.344;11.120;2023-11-19T10:57:59;0.80;;;0.43;;
18217;SDS011;9234;49.344;11.120;2023-11-19T11:00:29;3.50;;;1.20;;
18217;SDS011;9234;49.344;11.120;2023-11-19T11:03:11;3.05;;;1.23;;
18217;SDS011;9234;49.344;11.120;2023-11-19T11:05:46;2.78;;;0.70;;
18217;SDS011;9234;49.344;11.120;2023-11-19T11:08:16;0.80;;;0.60;;
18217;SDS011;9234;49.344;11.120;2023-11-19T11:10:47;1.35;;;0.70;;
18217;SDS011;9234;49.344;11.120;2023-11-19T11:13:25;1.10;;;1.00;;
18217;SDS011;9234;49.344;11.120;2023-11-19T11:15:56;1.90;;;0.55;;
18217;SDS011;9234;49.344;11.120;2023-11-19T11:18:25;2.40;;;0.85;;
18217;SDS011;9234;49.344;11.120;2023-11-19T11:20:56;2.25;;;1.20;;
18217;SDS011;9234;49.344;11.120;2023-11-19T11:23:39;3.75;;;1.08;;
18217;SDS011;9234;49.344;11.120;2023-11-19T11:29:53;2.08;;;1.15;;
18217;SDS011;9234;49.344;11.120;2023-11-19T11:32:39;4.35;;;1.88;;
18217;SDS011;9234;49.344;11.120;2023-11-19T11:35:24;1.90;;;0.88;;
18217;SDS011;9234;49.344;11.120;2023-11-19T11:38:09;3.28;;;1.27;;
18217;SDS011;9234;49.344;11.120;2023-11-19T11:40:39;3.33;;;0.80;;
18217;SDS011;9234;49.344;11.120;2023-11-19T11:49:27;3.22;;;1.48;;
18217;SDS011;9234;49.344;11.120;2023-11-19T11:52:00;1.77;;;0.60;;
18217;SDS011;9234;49.344;11.120;2023-11-19T11:54:33;1.40;;;1.10;;
18217;SDS011;9234;49.344;11.120;2023-11-19T11:57:03;1.88;;;1.10;;
18217;SDS011;9234;49.344;11.120;2023-11-19T11:59:43;1.92;;;1.17;;
18217;SDS011;9234;49.344;11.120;2023-11-19T12:02:17;2.95;;;1.90;;
18217;SDS011;9234;49.344;11.120;2023-11-19T12:04:48;4.63;;;1.73;;
18217;SDS011;9234;49.344;11.120;2023-11-19T12:07:20;1.52;;;1.20;;
18217;SDS011;9234;49.344;11.120;2023-11-19T12:09:53;2.92;;;1.83;;
18217;SDS011;9234;49.344;11.120;2023-11-19T12:12:35;2.22;;;0.98;;
18217;SDS011;9234;49.344;11.120;2023-11-19T12:15:05;3.08;;;1.00;;
18217;SDS011;9234;49.344;11.120;2023-11-19T12:20:22;1.45;;;0.85;;
18217;SDS011;9234;49.344;11.120;2023-11-19T12:22:55;2.47;;;0.95;;
18217;SDS011;9234;49.344;11.120;2023-11-19T12:25:23;1.98;;;0.82;;
18217;SDS011;9234;49.344;11.120;2023-11-19T12:27:52;1.25;;;0.80;;
18217;SDS011;9234;49.344;11.120;2023-11-19T12:30:21;2.08;;;1.30;;
18217;SDS011;9234;49.344;11.120;2023-11-19T12:32:53;2.28;;;0.75;;
18217;SDS011;9234;49.344;11.120;2023-11-19T12:35:22;1.95;;;0.80;;
18217;SDS011;9234;49.344;11.120;2023-11-19T12:37:50;1.63;;;0.95;;
18217;SDS011;9234;49.344;11.120;2023-11-19T12:40:20;1.60;;;0.60;;
18217;SDS011;9234;49.344;11.120;2023-11-19T12:42:52;1.38;;;0.80;;
18217;SDS011;9234;49.344;11.120;2023-11-19T12:45:22;1.25;;;0.60;;
18217;SDS011;9234;49.344;11.120;2023-11-19T12:48:05;2.88;;;0.88;;
18217;SDS011;9234;49.344;11.120;2023-11-19T12:50:51;1.00;;;0.75;;
18217;SDS011;9234;49.344;11.120;2023-11-19T12:53:20;3.45;;;1.02;;
18217;SDS011;9234;49.344;11.120;2023-11-19T12:55:49;2.65;;;0.80;;
18217;SDS011;9234;49.344;11.120;2023-11-19T12:58:27;2.65;;;0.75;;
18217;SDS011;9234;49.344;11.120;2023-11-19T13:01:00;1.33;;;0.50;;
18217;SDS011;9234;49.344;11.120;2023-11-19T13:03:31;1.55;;;0.73;;
18217;SDS011;9234;49.344;11.120;2023-11-19T13:06:02;1.52;;;0.68;;
18217;SDS011;9234;49.344;11.120;2023-11-19T13:08:38;2.38;;;0.70;;
18217;SDS011;9234;49.344;11.120;2023-11-19T13:11:08;1.20;;;0.52;;
18217;SDS011;9234;49.344;11.120;2023-11-19T13:13:55;1.02;;;0.52;;
18217;SDS011;9234;49.344;11.120;2023-11-19T13:16:25;5.50;;;1.58;;
18217;SDS011;9234;49.344;11.120;2023-11-19T13:18:57;1.15;;;0.55;;
18217;SDS011;9234;49.344;11.120;2023-11-19T13:21:27;3.75;;;0.80;;
18217;SDS011;9234;49.344;11.120;2023-11-19T13:23:56;1.50;;;0.95;;
18217;SDS011;9234;49.344;11.120;2023-11-19T13:26:24;2.35;;;1.40;;
18217;SDS011;9234;49.344;11.120;2023-11-19T13:28:53;2.80;;;0.93;;
18217;SDS011;9234;49.344;11.120;2023-11-19T13:31:21;1.45;;;1.00;;
18217;SDS011;9234;49.344;11.120;2023-11-19T13:33:49;1.90;;;0.95;;
18217;SDS011;9234;49.344;11.120;2023-11-19T13:36:19;2.45;;;0.80;;
18217;SDS011;9234;49.344;11.120;2023-11-19T13:38:47;3.65;;;1.13;;
18217;SDS011;9234;49.344;11.120;2023-11-19T13:41:16;0.80;;;0.63;;
18217;SDS011;9234;49.344;11.120;2023-11-19T13:43:44;2.22;;;0.95;;
18217;SDS011;9234;49.344;11.120;2023-11-19T13:46:13;1.98;;;1.17;;
18217;SDS011;9234;49.344;11.120;2023-11-19T13:48:41;2.97;;;1.33;;
18217;SDS011;9234;49.344;11.120;2023-11-19T13:51:09;2.10;;;1.23;;
18217;SDS011;9234;49.344;11.120;2023-11-19T13:53:39;2.83;;;1.05;;
18217;SDS011;9234;49.344;11.120;2023-11-19T13:56:10;6.97;;;1.77;;
18217;SDS011;9234;49.344;11.120;2023-11-19T13:58:39;3.10;;;1.20;;
18217;SDS011;9234;49.344;11.120;2023-11-19T14:01:07;4.43;;;1.45;;
18217;SDS011;9234;49.344;11.120;2023-11-19T14:03:36;2.25;;;1.05;;
18217;SDS011;9234;49.344;11.120;2023-11-19T14:06:04;1.25;;;0.90;;
18217;SDS011;9234;49.344;11.120;2023-11-19T14:08:35;2.15;;;1.20;;
18217;SDS011;9234;49.344;11.120;2023-11-19T14:11:05;1.42;;;1.13;;
18217;SDS011;9234;49.344;11.120;2023-11-19T14:13:34;2.70;;;1.00;;
18217;SDS011;9234;49.344;11.120;2023-11-19T14:16:02;1.67;;;0.60;;
18217;SDS011;9234;49.344;11.120;2023-11-19T14:18:33;0.95;;;0.68;;
18217;SDS011;9234;49.344;11.120;2023-11-19T14:21:02;3.78;;;1.02;;
18217;SDS011;9234;49.344;11.120;2023-11-19T14:23:31;2.92;;;0.80;;
18217;SDS011;9234;49.344;11.120;2023-11-19T14:26:00;5.28;;;1.25;;
18217;SDS011;9234;49.344;11.120;2023-11-19T14:28:29;1.42;;;1.00;;
18217;SDS011;9234;49.344;11.120;2023-11-19T14:30:57;3.08;;;0.98;;
18217;SDS011;9234;49.344;11.120;2023-11-19T14:33:26;3.13;;;1.20;;
18217;SDS011;9234;49.344;11.120;2023-11-19T14:35:55;2.63;;;1.40;;
18217;SDS011;9234;49.344;11.120;2023-11-19T14:38:23;2.38;;;1.58;;
18217;SDS011;9234;49.344;11.120;2023-11-19T14:40:51;5.00;;;2.85;;
18217;SDS011;9234;49.344;11.120;2023-11-19T14:43:21;5.28;;;2.70;;
18217;SDS011;9234;49.344;11.120;2023-11-19T14:45:51;2.78;;;1.40;;
18217;SDS011;9234;49.344;11.120;2023-11-19T14:48:22;4.13;;;1.23;;
18217;SDS011;9234;49.344;11.120;2023-11-19T14:50:51;3.55;;;1.08;;
18217;SDS011;9234;49.344;11.120;2023-11-19T14:53:19;1.90;;;1.30;;
18217;SDS011;9234;49.344;11.120;2023-11-19T14:55:47;1.77;;;0.50;;
18217;SDS011;9234;49.344;11.120;2023-11-19T14:58:15;1.50;;;0.90;;
18217;SDS011;9234;49.344;11.120;2023-11-19T15:00:44;2.63;;;1.48;;
18217;SDS011;9234;49.344;11.120;2023-11-19T15:03:13;1.48;;;0.65;;
18217;SDS011;9234;49.344;11.120;2023-11-19T15:05:42;2.83;;;0.90;;
18217;SDS011;9234;49.344;11.120;2023-11-19T15:08:12;2.60;;;0.70;;
18217;SDS011;9234;49.344;11.120;2023-11-19T15:10:43;2.25;;;0.88;;
18217;SDS011;9234;49.344;11.120;2023-11-19T15:13:13;0.82;;;0.47;;
18217;SDS011;9234;49.344;11.120;2023-11-19T15:15:41;2.40;;;0.95;;
18217;SDS011;9234;49.344;11.120;2023-11-19T15:18:09;6.25;;;4.15;;